sensor_id;sensor_type;location;lat;lon;timestamp;temperature;humidity
32865;DHT22;19219;44.500;11.188;2022-12-07T00:01:33;7.50;99.90
32865;DHT22;19219;44.500;11.188;2022-12-07T00:03:59;7.50;99.90
32865;DHT22;19219;44.500;11.188;2022-12-07T00:08:57;7.50;99.90
32865;DHT22;19219;44.500;11.188;2022-12-07T00:11:22;7.50;99.90
32865;DHT22;19219;44.500;11.188;2022-12-07T00:13:58;7.50;99.90
32865;DHT22;19219;44.500;11.188;2022-12-07T00:16:26;7.40;99.90
32865;DHT22;19219;44.500;11.188;2022-12-07T00:18:52;7.40;99.90
32865;DHT22;19219;44.500;11.188;2022-12-07T00:21:19;7.40;99.90
32865;DHT22;19219;44.500;11.188;2022-12-07T00:23:45;7.50;99.90
32865;DHT22;19219;44.500;11.188;2022-12-07T00:26:13;7.40;99.90
32865;DHT22;19219;44.500;11.188;2022-12-07T00:28:38;7.50;99.90
32865;DHT22;19219;44.500;11.188;2022-12-07T00:31:05;7.40;99.90
32865;DHT22;19219;44.500;11.188;2022-12-07T00:33:32;7.40;99.90
32865;DHT22;19219;44.500;11.188;2022-12-07T00:35:58;7.10;99.90
32865;DHT22;19219;44.500;11.188;2022-12-07T00:38:23;7.10;99.90
32865;DHT22;19219;44.500;11.188;2022-12-07T00:40:56;7.00;99.90
32865;DHT22;19219;44.500;11.188;2022-12-07T00:43:21;7.00;99.90
32865;DHT22;19219;44.500;11.188;2022-12-07T00:45:47;6.90;99.90
32865;DHT22;19219;44.500;11.188;2022-12-07T00:48:13;6.80;99.90
32865;DHT22;19219;44.500;11.188;2022-12-07T00:50:38;6.80;99.90
32865;DHT22;19219;44.500;11.188;2022-12-07T00:53:04;6.90;99.90
32865;DHT22;19219;44.500;11.188;2022-12-07T00:55:32;6.90;99.90
32865;DHT22;19219;44.500;11.188;2022-12-07T00:57:58;6.80;99.90
32865;DHT22;19219;44.500;11.188;2022-12-07T01:00:23;6.90;99.90
32865;DHT22;19219;44.500;11.188;2022-12-07T01:02:49;6.90;99.90
32865;DHT22;19219;44.500;11.188;2022-12-07T01:05:14;7.00;99.90
32865;DHT22;19219;44.500;11.188;2022-12-07T01:07:40;6.80;99.90
32865;DHT22;19219;44.500;11.188;2022-12-07T01:10:06;6.80;99.90
32865;DHT22;19219;44.500;11.188;2022-12-07T01:12:31;6.80;99.90
32865;DHT22;19219;44.500;11.188;2022-12-07T01:14:57;6.90;99.90
32865;DHT22;19219;44.500;11.188;2022-12-07T01:17:22;6.90;99.90
32865;DHT22;19219;44.500;11.188;2022-12-07T01:19:48;6.90;99.90
32865;DHT22;19219;44.500;11.188;2022-12-07T01:22:13;6.90;99.90
32865;DHT22;19219;44.500;11.188;2022-12-07T01:24:39;7.00;99.90
32865;DHT22;19219;44.500;11.188;2022-12-07T01:27:04;7.00;99.90
32865;DHT22;19219;44.500;11.188;2022-12-07T01:29:30;6.90;99.90
32865;DHT22;19219;44.500;11.188;2022-12-07T01:31:55;7.00;99.90
32865;DHT22;19219;44.500;11.188;2022-12-07T01:34:21;6.90;99.90
32865;DHT22;19219;44.500;11.188;2022-12-07T01:36:46;7.00;99.90
32865;DHT22;19219;44.500;11.188;2022-12-07T01:39:12;7.00;99.90
32865;DHT22;19219;44.500;11.188;2022-12-07T01:41:38;6.90;99.90
32865;DHT22;19219;44.500;11.188;2022-12-07T01:46:33;6.80;99.90
32865;DHT22;19219;44.500;11.188;2022-12-07T01:48:59;6.80;99.90
32865;DHT22;19219;44.500;11.188;2022-12-07T01:51:24;6.80;99.90
32865;DHT22;19219;44.500;11.188;2022-12-07T01:53:50;6.80;99.90
32865;DHT22;19219;44.500;11.188;2022-12-07T01:56:17;6.80;99.90
32865;DHT22;19219;44.500;11.188;2022-12-07T01:58:43;6.70;99.90
32865;DHT22;19219;44.500;11.188;2022-12-07T02:01:09;6.70;99.90
32865;DHT22;19219;44.500;11.188;2022-12-07T02:03:39;6.70;99.90
32865;DHT22;19219;44.500;11.188;2022-12-07T02:06:05;6.60;99.90
32865;DHT22;19219;44.500;11.188;2022-12-07T02:08:31;6.50;99.90
32865;DHT22;19219;44.500;11.188;2022-12-07T02:10:57;6.60;99.90
32865;DHT22;19219;44.500;11.188;2022-12-07T02:13:23;6.50;99.90
32865;DHT22;19219;44.500;11.188;2022-12-07T02:21:12;6.70;99.90
32865;DHT22;19219;44.500;11.188;2022-12-07T02:23:41;6.70;99.90
32865;DHT22;19219;44.500;11.188;2022-12-07T02:31:22;6.80;99.90
32865;DHT22;19219;44.500;11.188;2022-12-07T02:34:02;6.70;99.90
32865;DHT22;19219;44.500;11.188;2022-12-07T02:36:31;6.70;99.90
32865;DHT22;19219;44.500;11.188;2022-12-07T02:41:25;6.80;99.90
32865;DHT22;19219;44.500;11.188;2022-12-07T02:43:57;6.90;99.90
32865;DHT22;19219;44.500;11.188;2022-12-07T02:46:25;6.90;99.90
32865;DHT22;19219;44.500;11.188;2022-12-07T02:48:52;6.90;99.90
32865;DHT22;19219;44.500;11.188;2022-12-07T02:51:18;6.90;99.90
32865;DHT22;19219;44.500;11.188;2022-12-07T02:53:44;6.90;99.90
32865;DHT22;19219;44.500;11.188;2022-12-07T02:56:16;6.90;99.90
32865;DHT22;19219;44.500;11.188;2022-12-07T03:01:12;6.90;99.90
32865;DHT22;19219;44.500;11.188;2022-12-07T03:03:42;6.90;99.90
32865;DHT22;19219;44.500;11.188;2022-12-07T03:06:16;6.90;99.90
32865;DHT22;19219;44.500;11.188;2022-12-07T03:08:51;6.90;99.90
32865;DHT22;19219;44.500;11.188;2022-12-07T03:11:24;7.00;99.90
32865;DHT22;19219;44.500;11.188;2022-12-07T03:16:21;7.00;99.90
32865;DHT22;19219;44.500;11.188;2022-12-07T03:21:17;7.10;99.90
32865;DHT22;19219;44.500;11.188;2022-12-07T03:23:44;6.90;99.90
32865;DHT22;19219;44.500;11.188;2022-12-07T03:26:11;6.90;99.90
32865;DHT22;19219;44.500;11.188;2022-12-07T03:28:40;7.00;99.90
32865;DHT22;19219;44.500;11.188;2022-12-07T03:31:12;7.10;99.90
32865;DHT22;19219;44.500;11.188;2022-12-07T03:33:40;7.00;99.90
32865;DHT22;19219;44.500;11.188;2022-12-07T03:36:30;7.00;99.90
32865;DHT22;19219;44.500;11.188;2022-12-07T03:39:04;7.00;99.90
32865;DHT22;19219;44.500;11.188;2022-12-07T03:41:33;7.10;99.90
32865;DHT22;19219;44.500;11.188;2022-12-07T03:43:59;7.10;99.90
32865;DHT22;19219;44.500;11.188;2022-12-07T03:51:30;6.90;99.90
32865;DHT22;19219;44.500;11.188;2022-12-07T03:54:40;6.80;99.90
32865;DHT22;19219;44.500;11.188;2022-12-07T03:56:46;6.90;99.90
32865;DHT22;19219;44.500;11.188;2022-12-07T03:59:13;6.90;99.90
32865;DHT22;19219;44.500;11.188;2022-12-07T04:01:41;6.90;99.90
32865;DHT22;19219;44.500;11.188;2022-12-07T04:04:06;6.90;99.90
32865;DHT22;19219;44.500;11.188;2022-12-07T04:06:32;6.90;99.90
32865;DHT22;19219;44.500;11.188;2022-12-07T04:08:57;6.90;99.90
32865;DHT22;19219;44.500;11.188;2022-12-07T04:11:23;7.00;99.90
32865;DHT22;19219;44.500;11.188;2022-12-07T04:13:48;7.00;99.90
32865;DHT22;19219;44.500;11.188;2022-12-07T04:16:32;7.00;99.90
32865;DHT22;19219;44.500;11.188;2022-12-07T04:18:58;7.00;99.90
32865;DHT22;19219;44.500;11.188;2022-12-07T04:21:24;7.00;99.90
32865;DHT22;19219;44.500;11.188;2022-12-07T04:23:49;7.00;99.90
32865;DHT22;19219;44.500;11.188;2022-12-07T04:26:15;7.00;99.90
32865;DHT22;19219;44.500;11.188;2022-12-07T04:28:40;7.10;99.90
32865;DHT22;19219;44.500;11.188;2022-12-07T04:31:06;7.10;99.90
32865;DHT22;19219;44.500;11.188;2022-12-07T04:33:31;7.10;99.90
32865;DHT22;19219;44.500;11.188;2022-12-07T04:35:57;7.10;99.90
32865;DHT22;19219;44.500;11.188;2022-12-07T04:38:22;7.10;99.90
32865;DHT22;19219;44.500;11.188;2022-12-07T04:40:48;7.00;99.90
32865;DHT22;19219;44.500;11.188;2022-12-07T04:43:13;7.00;99.90
32865;DHT22;19219;44.500;11.188;2022-12-07T04:45:39;7.00;99.90
32865;DHT22;19219;44.500;11.188;2022-12-07T04:48:04;7.10;99.90
32865;DHT22;19219;44.500;11.188;2022-12-07T04:50:30;7.10;99.90
32865;DHT22;19219;44.500;11.188;2022-12-07T04:52:55;7.10;99.90
32865;DHT22;19219;44.500;11.188;2022-12-07T04:55:21;7.10;99.90
32865;DHT22;19219;44.500;11.188;2022-12-07T04:57:46;7.00;99.90
32865;DHT22;19219;44.500;11.188;2022-12-07T05:00:12;7.00;99.90
32865;DHT22;19219;44.500;11.188;2022-12-07T05:02:37;7.00;99.90
32865;DHT22;19219;44.500;11.188;2022-12-07T05:05:03;7.00;99.90
32865;DHT22;19219;44.500;11.188;2022-12-07T05:07:29;7.00;99.90
32865;DHT22;19219;44.500;11.188;2022-12-07T05:09:54;7.00;99.90
32865;DHT22;19219;44.500;11.188;2022-12-07T05:12:20;7.10;99.90
32865;DHT22;19219;44.500;11.188;2022-12-07T05:14:45;7.10;99.90
32865;DHT22;19219;44.500;11.188;2022-12-07T05:17:11;7.00;99.90
32865;DHT22;19219;44.500;11.188;2022-12-07T05:19:37;7.00;99.90
32865;DHT22;19219;44.500;11.188;2022-12-07T05:22:02;7.00;99.90
32865;DHT22;19219;44.500;11.188;2022-12-07T05:24:28;7.00;99.90
32865;DHT22;19219;44.500;11.188;2022-12-07T05:26:53;6.90;99.90
32865;DHT22;19219;44.500;11.188;2022-12-07T05:29:19;6.80;99.90
32865;DHT22;19219;44.500;11.188;2022-12-07T05:31:44;6.80;99.90
32865;DHT22;19219;44.500;11.188;2022-12-07T05:34:11;6.70;99.90
32865;DHT22;19219;44.500;11.188;2022-12-07T05:36:36;6.70;99.90
32865;DHT22;19219;44.500;11.188;2022-12-07T05:39:02;6.60;99.90
32865;DHT22;19219;44.500;11.188;2022-12-07T05:41:28;6.50;99.90
32865;DHT22;19219;44.500;11.188;2022-12-07T05:44:12;6.50;99.90
32865;DHT22;19219;44.500;11.188;2022-12-07T05:46:37;6.50;99.90
32865;DHT22;19219;44.500;11.188;2022-12-07T05:49:03;6.50;99.90
32865;DHT22;19219;44.500;11.188;2022-12-07T05:51:28;6.50;99.90
32865;DHT22;19219;44.500;11.188;2022-12-07T05:53:54;6.60;99.90
32865;DHT22;19219;44.500;11.188;2022-12-07T05:56:20;6.60;99.90
32865;DHT22;19219;44.500;11.188;2022-12-07T05:58:45;6.70;99.90
32865;DHT22;19219;44.500;11.188;2022-12-07T06:01:46;6.60;99.90
32865;DHT22;19219;44.500;11.188;2022-12-07T06:04:12;6.70;99.90
32865;DHT22;19219;44.500;11.188;2022-12-07T06:06:37;6.70;99.90
32865;DHT22;19219;44.500;11.188;2022-12-07T06:09:03;6.70;99.90
32865;DHT22;19219;44.500;11.188;2022-12-07T06:11:28;6.80;99.90
32865;DHT22;19219;44.500;11.188;2022-12-07T06:14:13;6.80;99.90
32865;DHT22;19219;44.500;11.188;2022-12-07T06:16:38;6.90;99.90
32865;DHT22;19219;44.500;11.188;2022-12-07T06:19:04;6.80;99.90
32865;DHT22;19219;44.500;11.188;2022-12-07T06:21:29;6.90;99.90
32865;DHT22;19219;44.500;11.188;2022-12-07T06:23:55;6.90;99.90
32865;DHT22;19219;44.500;11.188;2022-12-07T06:26:20;7.00;99.90
32865;DHT22;19219;44.500;11.188;2022-12-07T06:28:46;7.00;99.90
32865;DHT22;19219;44.500;11.188;2022-12-07T06:31:11;7.10;99.90
32865;DHT22;19219;44.500;11.188;2022-12-07T06:33:37;7.00;99.90
32865;DHT22;19219;44.500;11.188;2022-12-07T06:36:03;7.10;99.90
32865;DHT22;19219;44.500;11.188;2022-12-07T06:38:28;7.10;99.90
32865;DHT22;19219;44.500;11.188;2022-12-07T06:40:54;7.10;99.90
32865;DHT22;19219;44.500;11.188;2022-12-07T06:43:19;7.10;99.90
32865;DHT22;19219;44.500;11.188;2022-12-07T06:45:46;7.20;99.90
32865;DHT22;19219;44.500;11.188;2022-12-07T06:48:11;7.20;99.90
32865;DHT22;19219;44.500;11.188;2022-12-07T06:50:37;7.20;99.90
32865;DHT22;19219;44.500;11.188;2022-12-07T06:53:03;7.30;99.90
32865;DHT22;19219;44.500;11.188;2022-12-07T06:55:28;7.30;99.90
32865;DHT22;19219;44.500;11.188;2022-12-07T06:57:54;7.40;99.90
32865;DHT22;19219;44.500;11.188;2022-12-07T07:00:20;7.30;99.90
32865;DHT22;19219;44.500;11.188;2022-12-07T07:02:45;7.20;99.90
32865;DHT22;19219;44.500;11.188;2022-12-07T07:05:11;7.20;99.90
32865;DHT22;19219;44.500;11.188;2022-12-07T07:07:36;7.20;99.90
32865;DHT22;19219;44.500;11.188;2022-12-07T07:10:02;7.30;99.90
32865;DHT22;19219;44.500;11.188;2022-12-07T07:12:28;7.30;99.90
32865;DHT22;19219;44.500;11.188;2022-12-07T07:14:53;7.40;99.90
32865;DHT22;19219;44.500;11.188;2022-12-07T07:17:19;7.40;99.90
32865;DHT22;19219;44.500;11.188;2022-12-07T07:19:44;7.50;99.90
32865;DHT22;19219;44.500;11.188;2022-12-07T07:22:10;7.50;99.90
32865;DHT22;19219;44.500;11.188;2022-12-07T07:24:35;7.50;99.90
32865;DHT22;19219;44.500;11.188;2022-12-07T07:27:01;7.50;99.90
32865;DHT22;19219;44.500;11.188;2022-12-07T07:29:26;7.50;99.90
32865;DHT22;19219;44.500;11.188;2022-12-07T07:31:52;7.40;99.90
32865;DHT22;19219;44.500;11.188;2022-12-07T07:34:17;7.50;99.90
32865;DHT22;19219;44.500;11.188;2022-12-07T07:36:43;7.40;99.90
32865;DHT22;19219;44.500;11.188;2022-12-07T07:39:09;7.50;99.90
32865;DHT22;19219;44.500;11.188;2022-12-07T07:41:35;7.50;99.90
32865;DHT22;19219;44.500;11.188;2022-12-07T07:44:00;7.50;99.90
32865;DHT22;19219;44.500;11.188;2022-12-07T07:46:26;7.50;99.90
32865;DHT22;19219;44.500;11.188;2022-12-07T07:48:51;7.50;99.90
32865;DHT22;19219;44.500;11.188;2022-12-07T07:51:17;7.50;99.90
32865;DHT22;19219;44.500;11.188;2022-12-07T07:53:42;7.40;99.90
32865;DHT22;19219;44.500;11.188;2022-12-07T07:56:08;7.40;99.90
32865;DHT22;19219;44.500;11.188;2022-12-07T07:58:33;7.40;99.90
32865;DHT22;19219;44.500;11.188;2022-12-07T08:01:05;7.50;99.90
32865;DHT22;19219;44.500;11.188;2022-12-07T08:03:31;7.50;99.90
32865;DHT22;19219;44.500;11.188;2022-12-07T08:05:56;7.50;99.90
32865;DHT22;19219;44.500;11.188;2022-12-07T08:08:22;7.40;99.90
32865;DHT22;19219;44.500;11.188;2022-12-07T08:10:47;5.60;99.90
32865;DHT22;19219;44.500;11.188;2022-12-07T08:13:15;7.50;99.90
32865;DHT22;19219;44.500;11.188;2022-12-07T08:15:41;7.40;99.90
32865;DHT22;19219;44.500;11.188;2022-12-07T08:18:07;7.40;99.90
32865;DHT22;19219;44.500;11.188;2022-12-07T08:20:33;7.40;99.90
32865;DHT22;19219;44.500;11.188;2022-12-07T08:22:59;7.40;99.90
32865;DHT22;19219;44.500;11.188;2022-12-07T08:25:25;7.50;99.90
32865;DHT22;19219;44.500;11.188;2022-12-07T08:27:51;7.60;99.90
32865;DHT22;19219;44.500;11.188;2022-12-07T08:30:17;7.70;99.90
32865;DHT22;19219;44.500;11.188;2022-12-07T08:32:45;7.70;99.90
32865;DHT22;19219;44.500;11.188;2022-12-07T08:35:11;7.70;99.90
32865;DHT22;19219;44.500;11.188;2022-12-07T08:37:38;7.70;99.90
32865;DHT22;19219;44.500;11.188;2022-12-07T08:40:04;7.70;99.90
32865;DHT22;19219;44.500;11.188;2022-12-07T08:42:30;7.80;99.90
32865;DHT22;19219;44.500;11.188;2022-12-07T08:45:12;7.90;99.90
32865;DHT22;19219;44.500;11.188;2022-12-07T08:47:40;7.90;99.90
32865;DHT22;19219;44.500;11.188;2022-12-07T08:50:07;7.80;99.90
32865;DHT22;19219;44.500;11.188;2022-12-07T08:52:35;7.90;99.90
32865;DHT22;19219;44.500;11.188;2022-12-07T08:55:01;8.00;99.90
32865;DHT22;19219;44.500;11.188;2022-12-07T08:57:27;8.00;99.90
32865;DHT22;19219;44.500;11.188;2022-12-07T08:59:53;8.00;99.90
32865;DHT22;19219;44.500;11.188;2022-12-07T09:02:18;8.00;99.90
32865;DHT22;19219;44.500;11.188;2022-12-07T09:04:44;8.00;99.90
32865;DHT22;19219;44.500;11.188;2022-12-07T09:07:10;8.10;99.90
32865;DHT22;19219;44.500;11.188;2022-12-07T09:09:35;8.20;99.90
32865;DHT22;19219;44.500;11.188;2022-12-07T09:12:01;8.20;99.90
32865;DHT22;19219;44.500;11.188;2022-12-07T09:14:27;8.20;99.90
32865;DHT22;19219;44.500;11.188;2022-12-07T09:16:53;8.30;99.90
32865;DHT22;19219;44.500;11.188;2022-12-07T09:19:18;8.20;99.90
32865;DHT22;19219;44.500;11.188;2022-12-07T09:21:44;8.20;99.90
32865;DHT22;19219;44.500;11.188;2022-12-07T09:24:11;8.10;99.90
32865;DHT22;19219;44.500;11.188;2022-12-07T09:26:36;8.10;99.90
32865;DHT22;19219;44.500;11.188;2022-12-07T09:29:04;8.10;99.90
32865;DHT22;19219;44.500;11.188;2022-12-07T09:31:30;8.30;99.90
32865;DHT22;19219;44.500;11.188;2022-12-07T09:33:56;8.40;99.90
32865;DHT22;19219;44.500;11.188;2022-12-07T09:36:22;8.90;99.90
32865;DHT22;19219;44.500;11.188;2022-12-07T09:38:47;8.60;99.90
32865;DHT22;19219;44.500;11.188;2022-12-07T09:41:13;8.70;99.90
32865;DHT22;19219;44.500;11.188;2022-12-07T09:43:40;8.80;99.90
32865;DHT22;19219;44.500;11.188;2022-12-07T09:46:08;8.90;99.90
32865;DHT22;19219;44.500;11.188;2022-12-07T09:48:36;8.90;99.90
32865;DHT22;19219;44.500;11.188;2022-12-07T09:51:02;8.90;99.90
32865;DHT22;19219;44.500;11.188;2022-12-07T09:53:36;9.00;99.90
32865;DHT22;19219;44.500;11.188;2022-12-07T09:56:02;9.30;99.90
32865;DHT22;19219;44.500;11.188;2022-12-07T09:58:28;9.60;99.90
32865;DHT22;19219;44.500;11.188;2022-12-07T10:01:08;9.70;99.90
32865;DHT22;19219;44.500;11.188;2022-12-07T10:03:36;9.80;99.90
32865;DHT22;19219;44.500;11.188;2022-12-07T10:06:03;9.80;99.90
32865;DHT22;19219;44.500;11.188;2022-12-07T10:08:29;9.80;99.90
32865;DHT22;19219;44.500;11.188;2022-12-07T10:10:55;10.10;99.90
32865;DHT22;19219;44.500;11.188;2022-12-07T10:13:37;10.30;99.90
32865;DHT22;19219;44.500;11.188;2022-12-07T10:16:02;10.60;99.90
32865;DHT22;19219;44.500;11.188;2022-12-07T10:18:39;10.70;99.90
32865;DHT22;19219;44.500;11.188;2022-12-07T10:23:35;10.30;99.90
32865;DHT22;19219;44.500;11.188;2022-12-07T10:28:50;9.90;99.90
32865;DHT22;19219;44.500;11.188;2022-12-07T10:31:20;9.60;99.90
32865;DHT22;19219;44.500;11.188;2022-12-07T10:33:57;9.40;99.90
32865;DHT22;19219;44.500;11.188;2022-12-07T10:41:25;9.20;99.90
32865;DHT22;19219;44.500;11.188;2022-12-07T10:43:52;9.20;99.90
32865;DHT22;19219;44.500;11.188;2022-12-07T10:57:02;9.10;99.90
32865;DHT22;19219;44.500;11.188;2022-12-07T10:59:52;9.20;99.90
32865;DHT22;19219;44.500;11.188;2022-12-07T11:02:32;9.40;99.90
32865;DHT22;19219;44.500;11.188;2022-12-07T11:05:03;9.50;99.90
32865;DHT22;19219;44.500;11.188;2022-12-07T11:13:25;9.80;99.90
32865;DHT22;19219;44.500;11.188;2022-12-07T11:20:54;10.00;99.90
32865;DHT22;19219;44.500;11.188;2022-12-07T11:28:18;9.80;99.90
32865;DHT22;19219;44.500;11.188;2022-12-07T11:30:51;9.80;99.90
32865;DHT22;19219;44.500;11.188;2022-12-07T11:36:10;9.70;99.90
32865;DHT22;19219;44.500;11.188;2022-12-07T11:38:45;9.80;99.90
32865;DHT22;19219;44.500;11.188;2022-12-07T11:41:13;9.80;99.90
32865;DHT22;19219;44.500;11.188;2022-12-07T11:43:49;9.90;99.90
32865;DHT22;19219;44.500;11.188;2022-12-07T11:46:16;10.10;99.90
32865;DHT22;19219;44.500;11.188;2022-12-07T11:48:46;10.50;99.90
32865;DHT22;19219;44.500;11.188;2022-12-07T11:51:14;10.80;99.90
32865;DHT22;19219;44.500;11.188;2022-12-07T11:53:46;11.20;99.90
32865;DHT22;19219;44.500;11.188;2022-12-07T11:56:15;11.30;99.90
32865;DHT22;19219;44.500;11.188;2022-12-07T12:03:45;11.60;99.90
32865;DHT22;19219;44.500;11.188;2022-12-07T12:06:11;11.60;99.90
32865;DHT22;19219;44.500;11.188;2022-12-07T12:08:42;11.60;99.90
32865;DHT22;19219;44.500;11.188;2022-12-07T12:13:58;11.30;99.90
32865;DHT22;19219;44.500;11.188;2022-12-07T12:16:47;11.20;99.90
32865;DHT22;19219;44.500;11.188;2022-12-07T12:19:30;11.00;99.90
32865;DHT22;19219;44.500;11.188;2022-12-07T12:22:04;10.90;99.90
32865;DHT22;19219;44.500;11.188;2022-12-07T12:24:31;10.60;99.90
32865;DHT22;19219;44.500;11.188;2022-12-07T12:27:15;10.60;99.90
32865;DHT22;19219;44.500;11.188;2022-12-07T12:29:43;10.50;99.90
32865;DHT22;19219;44.500;11.188;2022-12-07T12:32:19;10.20;99.90
32865;DHT22;19219;44.500;11.188;2022-12-07T12:35:17;10.10;99.90
32865;DHT22;19219;44.500;11.188;2022-12-07T12:37:45;10.20;99.90
32865;DHT22;19219;44.500;11.188;2022-12-07T12:42:49;10.30;99.90
32865;DHT22;19219;44.500;11.188;2022-12-07T12:47:54;10.30;99.90
32865;DHT22;19219;44.500;11.188;2022-12-07T12:50:21;10.40;99.90
32865;DHT22;19219;44.500;11.188;2022-12-07T12:52:51;10.40;99.90
32865;DHT22;19219;44.500;11.188;2022-12-07T12:55:18;10.40;99.90
32865;DHT22;19219;44.500;11.188;2022-12-07T12:57:46;10.30;99.90
32865;DHT22;19219;44.500;11.188;2022-12-07T13:00:16;10.20;99.90
32865;DHT22;19219;44.500;11.188;2022-12-07T13:02:52;10.10;99.90
32865;DHT22;19219;44.500;11.188;2022-12-07T13:05:22;10.00;99.90
32865;DHT22;19219;44.500;11.188;2022-12-07T13:07:57;9.90;99.90
32865;DHT22;19219;44.500;11.188;2022-12-07T13:26:14;11.60;99.90
32865;DHT22;19219;44.500;11.188;2022-12-07T13:29:22;10.70;99.90
32865;DHT22;19219;44.500;11.188;2022-12-07T13:34:04;10.90;99.90
32865;DHT22;19219;44.500;11.188;2022-12-07T13:36:36;10.90;99.90
32865;DHT22;19219;44.500;11.188;2022-12-07T13:41:41;10.80;99.90
32865;DHT22;19219;44.500;11.188;2022-12-07T13:44:13;10.90;99.90
32865;DHT22;19219;44.500;11.188;2022-12-07T13:46:53;11.00;99.90
32865;DHT22;19219;44.500;11.188;2022-12-07T13:49:23;11.00;99.90
32865;DHT22;19219;44.500;11.188;2022-12-07T13:51:49;10.90;99.90
32865;DHT22;19219;44.500;11.188;2022-12-07T13:54:15;10.90;99.90
32865;DHT22;19219;44.500;11.188;2022-12-07T13:56:41;10.80;99.90
32865;DHT22;19219;44.500;11.188;2022-12-07T13:59:12;10.70;99.90
32865;DHT22;19219;44.500;11.188;2022-12-07T14:01:38;10.70;99.90
32865;DHT22;19219;44.500;11.188;2022-12-07T14:06:49;10.60;99.90
32865;DHT22;19219;44.500;11.188;2022-12-07T14:11:44;10.40;99.90
32865;DHT22;19219;44.500;11.188;2022-12-07T14:14:10;10.40;99.90
32865;DHT22;19219;44.500;11.188;2022-12-07T14:16:36;10.50;99.90
32865;DHT22;19219;44.500;11.188;2022-12-07T14:19:04;10.40;99.90
32865;DHT22;19219;44.500;11.188;2022-12-07T14:21:31;10.50;99.90
32865;DHT22;19219;44.500;11.188;2022-12-07T14:24:12;10.30;99.90
32865;DHT22;19219;44.500;11.188;2022-12-07T14:26:40;10.30;99.90
32865;DHT22;19219;44.500;11.188;2022-12-07T14:31:50;10.10;99.90
32865;DHT22;19219;44.500;11.188;2022-12-07T14:34:15;10.00;99.90
32865;DHT22;19219;44.500;11.188;2022-12-07T14:36:41;9.90;99.90
32865;DHT22;19219;44.500;11.188;2022-12-07T14:39:06;10.00;99.90
32865;DHT22;19219;44.500;11.188;2022-12-07T14:41:32;10.00;99.90
32865;DHT22;19219;44.500;11.188;2022-12-07T14:44:16;9.90;99.90
32865;DHT22;19219;44.500;11.188;2022-12-07T14:46:41;9.70;99.90
32865;DHT22;19219;44.500;11.188;2022-12-07T14:49:07;9.70;99.90
32865;DHT22;19219;44.500;11.188;2022-12-07T14:51:33;9.70;99.90
32865;DHT22;19219;44.500;11.188;2022-12-07T14:53:59;9.60;99.90
32865;DHT22;19219;44.500;11.188;2022-12-07T14:56:25;9.60;99.90
32865;DHT22;19219;44.500;11.188;2022-12-07T14:58:50;9.60;99.90
32865;DHT22;19219;44.500;11.188;2022-12-07T15:01:16;9.50;99.90
32865;DHT22;19219;44.500;11.188;2022-12-07T15:03:41;9.50;99.90
32865;DHT22;19219;44.500;11.188;2022-12-07T15:06:07;9.50;99.90
32865;DHT22;19219;44.500;11.188;2022-12-07T15:08:33;9.50;99.90
32865;DHT22;19219;44.500;11.188;2022-12-07T15:10:58;9.40;99.90
32865;DHT22;19219;44.500;11.188;2022-12-07T15:13:24;9.40;99.90
32865;DHT22;19219;44.500;11.188;2022-12-07T15:16:12;9.40;99.90
32865;DHT22;19219;44.500;11.188;2022-12-07T15:18:38;9.40;99.90
32865;DHT22;19219;44.500;11.188;2022-12-07T15:21:04;9.30;99.90
32865;DHT22;19219;44.500;11.188;2022-12-07T15:23:29;9.30;99.90
32865;DHT22;19219;44.500;11.188;2022-12-07T15:25:56;9.30;99.90
32865;DHT22;19219;44.500;11.188;2022-12-07T15:28:22;9.30;99.90
32865;DHT22;19219;44.500;11.188;2022-12-07T15:30:47;9.20;99.90
32865;DHT22;19219;44.500;11.188;2022-12-07T15:33:13;9.20;99.90
32865;DHT22;19219;44.500;11.188;2022-12-07T15:35:42;9.20;99.90
32865;DHT22;19219;44.500;11.188;2022-12-07T15:38:08;9.00;99.90
32865;DHT22;19219;44.500;11.188;2022-12-07T15:40:33;9.00;99.90
32865;DHT22;19219;44.500;11.188;2022-12-07T15:43:00;8.90;99.90
32865;DHT22;19219;44.500;11.188;2022-12-07T15:45:26;8.80;99.90
32865;DHT22;19219;44.500;11.188;2022-12-07T15:47:51;8.70;99.90
32865;DHT22;19219;44.500;11.188;2022-12-07T15:50:17;8.60;99.90
32865;DHT22;19219;44.500;11.188;2022-12-07T15:52:42;8.60;99.90
32865;DHT22;19219;44.500;11.188;2022-12-07T15:55:09;8.60;99.90
32865;DHT22;19219;44.500;11.188;2022-12-07T15:57:35;8.50;99.90
32865;DHT22;19219;44.500;11.188;2022-12-07T16:00:02;8.40;99.90
32865;DHT22;19219;44.500;11.188;2022-12-07T16:02:28;8.20;99.90
32865;DHT22;19219;44.500;11.188;2022-12-07T16:04:54;8.00;99.90
32865;DHT22;19219;44.500;11.188;2022-12-07T16:07:19;7.90;99.90
32865;DHT22;19219;44.500;11.188;2022-12-07T16:09:45;7.80;99.90
32865;DHT22;19219;44.500;11.188;2022-12-07T16:12:11;7.70;99.90
32865;DHT22;19219;44.500;11.188;2022-12-07T16:14:39;7.60;99.90
32865;DHT22;19219;44.500;11.188;2022-12-07T16:17:05;7.60;99.90
32865;DHT22;19219;44.500;11.188;2022-12-07T16:19:31;7.40;99.90
32865;DHT22;19219;44.500;11.188;2022-12-07T16:21:57;7.30;99.90
32865;DHT22;19219;44.500;11.188;2022-12-07T16:24:23;7.20;99.90
32865;DHT22;19219;44.500;11.188;2022-12-07T16:26:48;7.10;99.90
32865;DHT22;19219;44.500;11.188;2022-12-07T16:29:14;7.00;99.90
32865;DHT22;19219;44.500;11.188;2022-12-07T16:31:39;7.00;99.90
32865;DHT22;19219;44.500;11.188;2022-12-07T16:34:05;6.90;99.90
32865;DHT22;19219;44.500;11.188;2022-12-07T16:36:31;6.90;99.90
32865;DHT22;19219;44.500;11.188;2022-12-07T16:39:00;6.80;99.90
32865;DHT22;19219;44.500;11.188;2022-12-07T16:41:26;6.60;99.90
32865;DHT22;19219;44.500;11.188;2022-12-07T16:43:52;6.60;99.90
32865;DHT22;19219;44.500;11.188;2022-12-07T16:46:17;6.40;99.90
32865;DHT22;19219;44.500;11.188;2022-12-07T16:48:43;6.40;99.90
32865;DHT22;19219;44.500;11.188;2022-12-07T16:51:10;6.30;99.90
32865;DHT22;19219;44.500;11.188;2022-12-07T16:53:36;6.20;99.90
32865;DHT22;19219;44.500;11.188;2022-12-07T16:56:02;6.20;99.90
32865;DHT22;19219;44.500;11.188;2022-12-07T16:58:29;6.20;99.90
32865;DHT22;19219;44.500;11.188;2022-12-07T17:00:55;6.20;99.90
32865;DHT22;19219;44.500;11.188;2022-12-07T17:03:21;6.10;99.90
32865;DHT22;19219;44.500;11.188;2022-12-07T17:05:47;6.10;99.90
32865;DHT22;19219;44.500;11.188;2022-12-07T17:08:14;6.00;99.90
32865;DHT22;19219;44.500;11.188;2022-12-07T17:10:40;5.90;99.90
32865;DHT22;19219;44.500;11.188;2022-12-07T17:13:06;5.90;99.90
32865;DHT22;19219;44.500;11.188;2022-12-07T17:15:54;5.80;99.90
32865;DHT22;19219;44.500;11.188;2022-12-07T17:18:20;5.70;99.90
32865;DHT22;19219;44.500;11.188;2022-12-07T17:20:45;5.50;99.90
32865;DHT22;19219;44.500;11.188;2022-12-07T17:23:11;5.50;99.90